CPA712 YSSY-VHHH
Flight info
| Callsign | CPA712 |
|---|---|
| Flight time | N/A |
| Altitude | 32000 |
| Route | RIC H530 AGRAX/N0502F340 H530 SURVO R340 AMN A461 BONDA/N0496F360 A461 ZAM A583 SABNO V542 BETTY |
| Aircraft | B77W/H-SDE1E2E3FGHIJ2J3J4J5M1RWXY/LB1D1 |
Departure
| Time | 2026-05-06 03:47 |
|---|---|
| Airport | Sydney Kingsford Smith International Airport (YSSY) |
Arrival
| Time | N/A |
|---|---|
| Airport | Hong Kong International Airport (VHHH) |
| Time | Latitude | Longitude | Altitude | Speed | Heading |
|---|---|---|---|---|---|
| 2026-05-06 02:43 | -33.93827 | 151.16840 | 35 ft | 0 kts | 74° |
| 2026-05-06 03:35 | -33.93830 | 151.16827 | 34 ft | 2 kts | 74° |
| 2026-05-06 03:35 | -33.93835 | 151.16808 | 33 ft | 2 kts | 74° |
| 2026-05-06 03:35 | -33.93839 | 151.16789 | 35 ft | 2 kts | 74° |
| 2026-05-06 03:36 | -33.93844 | 151.16770 | 35 ft | 2 kts | 75° |
| 2026-05-06 03:36 | -33.93843 | 151.16751 | 34 ft | 2 kts | 116° |
| 2026-05-06 03:36 | -33.93831 | 151.16739 | 32 ft | 2 kts | 168° |
| 2026-05-06 03:36 | -33.93816 | 151.16736 | 33 ft | 1 kts | 166° |
| 2026-05-06 03:37 | -33.93814 | 151.16735 | 33 ft | 0 kts | 165° |
| 2026-05-06 03:41 | -33.93817 | 151.16736 | 33 ft | 2 kts | 165° |
| 2026-05-06 03:41 | -33.93868 | 151.16752 | 32 ft | 13 kts | 165° |
| 2026-05-06 03:41 | -33.93986 | 151.16793 | 35 ft | 21 kts | 163° |
| 2026-05-06 03:42 | -33.94072 | 151.16878 | 35 ft | 0 kts | 99° |
| 2026-05-06 03:42 | -33.94064 | 151.16912 | 34 ft | 15 kts | 64° |
| 2026-05-06 03:42 | -33.94018 | 151.17027 | 34 ft | 20 kts | 72° |
| 2026-05-06 03:42 | -33.93964 | 151.17194 | 34 ft | 16 kts | 37° |
| 2026-05-06 03:43 | -33.93825 | 151.17188 | 33 ft | 25 kts | 348° |
| 2026-05-06 03:43 | -33.93631 | 151.17138 | 34 ft | 30 kts | 347° |
| 2026-05-06 03:43 | -33.93431 | 151.17084 | 34 ft | 30 kts | 347° |
| 2026-05-06 03:43 | -33.93241 | 151.16964 | 34 ft | 33 kts | 339° |
| 2026-05-06 03:44 | -33.93050 | 151.16911 | 35 ft | 19 kts | 353° |
| 2026-05-06 03:44 | -33.92978 | 151.16991 | 35 ft | 14 kts | 70° |
| 2026-05-06 03:44 | -33.92970 | 151.17024 | 35 ft | 1 kts | 77° |
| 2026-05-06 03:44 | -33.92969 | 151.17030 | 35 ft | 0 kts | 77° |
| 2026-05-06 03:45 | -33.92962 | 151.17097 | 35 ft | 20 kts | 94° |
| 2026-05-06 03:45 | -33.93040 | 151.17186 | 35 ft | 15 kts | 164° |
| 2026-05-06 03:45 | -33.93061 | 151.17192 | 35 ft | 0 kts | 167° |
| 2026-05-06 03:46 | -33.93063 | 151.17193 | 35 ft | 3 kts | 167° |
| 2026-05-06 03:46 | -33.93203 | 151.17230 | 36 ft | 53 kts | 168° |
| 2026-05-06 03:46 | -33.93570 | 151.17322 | 32 ft | 108 kts | 168° |
| 2026-05-06 03:47 | -33.94561 | 151.17581 | 35 ft | 180 kts | 168° |
| 2026-05-06 03:47 | -33.95914 | 151.17911 | 390 ft | 199 kts | 169° |
| 2026-05-06 03:47 | -33.97279 | 151.18241 | 1004 ft | 206 kts | 169° |
| 2026-05-06 03:47 | -33.98727 | 151.18308 | 1225 ft | 209 kts | 192° |
| 2026-05-06 03:48 | -34.00166 | 151.17972 | 1905 ft | 218 kts | 189° |
| 2026-05-06 03:48 | -34.01760 | 151.17709 | 2137 ft | 243 kts | 188° |
| 2026-05-06 03:48 | -34.03486 | 151.17596 | 2516 ft | 255 kts | 169° |
| 2026-05-06 03:48 | -34.05201 | 151.18238 | 3010 ft | 262 kts | 161° |
| 2026-05-06 03:49 | -34.06951 | 151.18898 | 3706 ft | 264 kts | 164° |
| 2026-05-06 03:49 | -34.08699 | 151.19499 | 4456 ft | 265 kts | 165° |
| 2026-05-06 03:49 | -34.10483 | 151.20099 | 5164 ft | 268 kts | 165° |
| 2026-05-06 03:49 | -34.12311 | 151.20712 | 5872 ft | 271 kts | 165° |
| 2026-05-06 03:50 | -34.14110 | 151.21313 | 6528 ft | 274 kts | 165° |
| 2026-05-06 03:50 | -34.15955 | 151.21929 | 7195 ft | 276 kts | 165° |
| 2026-05-06 03:50 | -34.17818 | 151.22544 | 7841 ft | 277 kts | 168° |
| 2026-05-06 03:50 | -34.19737 | 151.22602 | 8313 ft | 281 kts | 197° |
| 2026-05-06 03:51 | -34.21437 | 151.21471 | 8882 ft | 282 kts | 225° |
| 2026-05-06 03:51 | -34.22746 | 151.19710 | 9419 ft | 284 kts | 230° |
| 2026-05-06 03:51 | -34.24042 | 151.17882 | 10013 ft | 288 kts | 230° |
| 2026-05-06 03:51 | -34.25230 | 151.15893 | 10257 ft | 300 kts | 248° |
| 2026-05-06 03:52 | -34.25554 | 151.13389 | 10628 ft | 310 kts | 277° |
| 2026-05-06 03:52 | -34.25083 | 151.10841 | 11121 ft | 314 kts | 284° |
| 2026-05-06 03:52 | -34.24506 | 151.08271 | 11707 ft | 317 kts | 289° |
| 2026-05-06 03:52 | -34.23429 | 151.05952 | 12299 ft | 321 kts | 314° |
| 2026-05-06 03:53 | -34.21597 | 151.04389 | 13117 ft | 327 kts | 336° |
| 2026-05-06 03:53 | -34.19405 | 151.03639 | 14288 ft | 329 kts | 349° |
| 2026-05-06 03:53 | -34.17130 | 151.03145 | 15284 ft | 337 kts | 349° |
| 2026-05-06 03:53 | -34.14761 | 151.02631 | 15949 ft | 353 kts | 349° |
| 2026-05-06 03:54 | -34.12292 | 151.02077 | 16619 ft | 368 kts | 349° |
| 2026-05-06 03:54 | -34.09733 | 151.01407 | 17283 ft | 382 kts | 345° |